sensor_id;sensor_type;location;lat;lon;timestamp;P1;durP1;ratioP1;P2;durP2;ratioP2
2175;SDS011;1094;49.902;10.876;2023-02-28T00:00:12;33.17;;;29.95;;
2175;SDS011;1094;49.902;10.876;2023-02-28T00:02:40;29.90;;;27.50;;
2175;SDS011;1094;49.902;10.876;2023-02-28T00:05:06;30.33;;;28.13;;
2175;SDS011;1094;49.902;10.876;2023-02-28T00:07:33;29.52;;;27.15;;
2175;SDS011;1094;49.902;10.876;2023-02-28T00:09:59;28.20;;;26.23;;
2175;SDS011;1094;49.902;10.876;2023-02-28T00:12:25;28.85;;;26.70;;
2175;SDS011;1094;49.902;10.876;2023-02-28T00:14:51;26.73;;;24.67;;
2175;SDS011;1094;49.902;10.876;2023-02-28T00:17:17;27.15;;;25.35;;
2175;SDS011;1094;49.902;10.876;2023-02-28T00:19:46;26.73;;;25.00;;
2175;SDS011;1094;49.902;10.876;2023-02-28T00:22:12;27.80;;;25.80;;
2175;SDS011;1094;49.902;10.876;2023-02-28T00:24:38;28.77;;;26.43;;
2175;SDS011;1094;49.902;10.876;2023-02-28T00:27:04;26.20;;;24.50;;
2175;SDS011;1094;49.902;10.876;2023-02-28T00:29:30;27.17;;;25.50;;
2175;SDS011;1094;49.902;10.876;2023-02-28T00:31:56;28.00;;;26.10;;
2175;SDS011;1094;49.902;10.876;2023-02-28T00:34:22;27.83;;;25.70;;
2175;SDS011;1094;49.902;10.876;2023-02-28T00:36:48;28.53;;;26.40;;
2175;SDS011;1094;49.902;10.876;2023-02-28T00:39:14;29.17;;;27.00;;
2175;SDS011;1094;49.902;10.876;2023-02-28T00:41:40;28.63;;;26.73;;
2175;SDS011;1094;49.902;10.876;2023-02-28T00:44:06;27.17;;;25.40;;
2175;SDS011;1094;49.902;10.876;2023-02-28T00:46:32;27.48;;;25.77;;
2175;SDS011;1094;49.902;10.876;2023-02-28T00:48:58;27.63;;;25.77;;
2175;SDS011;1094;49.902;10.876;2023-02-28T00:51:24;26.37;;;24.77;;
2175;SDS011;1094;49.902;10.876;2023-02-28T00:53:50;27.53;;;25.73;;
2175;SDS011;1094;49.902;10.876;2023-02-28T00:56:16;26.45;;;24.80;;
2175;SDS011;1094;49.902;10.876;2023-02-28T00:58:42;27.27;;;25.33;;
2175;SDS011;1094;49.902;10.876;2023-02-28T01:01:08;28.00;;;26.00;;
2175;SDS011;1094;49.902;10.876;2023-02-28T01:03:34;26.77;;;25.10;;
2175;SDS011;1094;49.902;10.876;2023-02-28T01:05:59;26.30;;;24.60;;
2175;SDS011;1094;49.902;10.876;2023-02-28T01:08:25;27.77;;;25.98;;
2175;SDS011;1094;49.902;10.876;2023-02-28T01:10:51;28.75;;;26.90;;
2175;SDS011;1094;49.902;10.876;2023-02-28T01:13:18;27.40;;;25.50;;
2175;SDS011;1094;49.902;10.876;2023-02-28T01:15:51;26.80;;;25.08;;
2175;SDS011;1094;49.902;10.876;2023-02-28T01:18:17;25.73;;;24.02;;
2175;SDS011;1094;49.902;10.876;2023-02-28T01:20:43;26.05;;;24.10;;
2175;SDS011;1094;49.902;10.876;2023-02-28T01:23:11;26.60;;;24.77;;
2175;SDS011;1094;49.902;10.876;2023-02-28T01:25:36;27.40;;;25.37;;
2175;SDS011;1094;49.902;10.876;2023-02-28T01:28:03;26.30;;;24.77;;
2175;SDS011;1094;49.902;10.876;2023-02-28T01:30:29;27.15;;;25.27;;
2175;SDS011;1094;49.902;10.876;2023-02-28T01:32:55;27.00;;;25.27;;
2175;SDS011;1094;49.902;10.876;2023-02-28T01:35:21;26.40;;;24.67;;
2175;SDS011;1094;49.902;10.876;2023-02-28T01:37:47;28.17;;;25.90;;
2175;SDS011;1094;49.902;10.876;2023-02-28T01:40:13;27.90;;;25.80;;
2175;SDS011;1094;49.902;10.876;2023-02-28T01:42:39;27.75;;;25.77;;
2175;SDS011;1094;49.902;10.876;2023-02-28T01:45:18;29.80;;;27.30;;
2175;SDS011;1094;49.902;10.876;2023-02-28T01:47:44;28.13;;;25.92;;
2175;SDS011;1094;49.902;10.876;2023-02-28T01:50:12;27.88;;;26.08;;
2175;SDS011;1094;49.902;10.876;2023-02-28T01:52:39;28.30;;;26.10;;
2175;SDS011;1094;49.902;10.876;2023-02-28T01:55:05;27.02;;;25.20;;
2175;SDS011;1094;49.902;10.876;2023-02-28T01:57:36;27.45;;;25.65;;
2175;SDS011;1094;49.902;10.876;2023-02-28T02:00:22;27.67;;;25.77;;
2175;SDS011;1094;49.902;10.876;2023-02-28T02:02:50;26.33;;;24.77;;
2175;SDS011;1094;49.902;10.876;2023-02-28T02:05:19;26.65;;;25.00;;
2175;SDS011;1094;49.902;10.876;2023-02-28T02:07:46;27.70;;;25.45;;
2175;SDS011;1094;49.902;10.876;2023-02-28T02:10:13;27.13;;;25.40;;
2175;SDS011;1094;49.902;10.876;2023-02-28T02:15:24;27.70;;;26.00;;
2175;SDS011;1094;49.902;10.876;2023-02-28T02:17:52;27.23;;;25.33;;
2175;SDS011;1094;49.902;10.876;2023-02-28T02:20:29;25.45;;;23.85;;
2175;SDS011;1094;49.902;10.876;2023-02-28T02:25:34;26.85;;;25.05;;
2175;SDS011;1094;49.902;10.876;2023-02-28T02:30:44;27.45;;;25.73;;
2175;SDS011;1094;49.902;10.876;2023-02-28T02:36:05;26.33;;;24.70;;
2175;SDS011;1094;49.902;10.876;2023-02-28T02:41:08;27.60;;;25.60;;
2175;SDS011;1094;49.902;10.876;2023-02-28T02:46:06;27.83;;;25.90;;
2175;SDS011;1094;49.902;10.876;2023-02-28T02:48:35;27.45;;;25.65;;
2175;SDS011;1094;49.902;10.876;2023-02-28T02:51:03;27.42;;;25.52;;
2175;SDS011;1094;49.902;10.876;2023-02-28T02:53:37;26.02;;;24.27;;
2175;SDS011;1094;49.902;10.876;2023-02-28T02:56:03;28.17;;;26.13;;
2175;SDS011;1094;49.902;10.876;2023-02-28T02:58:35;29.20;;;27.23;;
2175;SDS011;1094;49.902;10.876;2023-02-28T03:01:06;27.60;;;25.63;;
2175;SDS011;1094;49.902;10.876;2023-02-28T03:03:34;28.52;;;26.65;;
2175;SDS011;1094;49.902;10.876;2023-02-28T03:06:01;28.92;;;26.80;;
2175;SDS011;1094;49.902;10.876;2023-02-28T03:08:28;27.45;;;25.63;;
2175;SDS011;1094;49.902;10.876;2023-02-28T03:11:02;27.90;;;26.08;;
2175;SDS011;1094;49.902;10.876;2023-02-28T03:13:36;28.10;;;25.92;;
2175;SDS011;1094;49.902;10.876;2023-02-28T03:21:14;27.77;;;25.88;;
2175;SDS011;1094;49.902;10.876;2023-02-28T03:23:45;27.20;;;25.40;;
2175;SDS011;1094;49.902;10.876;2023-02-28T03:26:13;26.38;;;24.77;;
2175;SDS011;1094;49.902;10.876;2023-02-28T03:28:43;27.52;;;25.67;;
2175;SDS011;1094;49.902;10.876;2023-02-28T03:31:17;28.40;;;26.30;;
2175;SDS011;1094;49.902;10.876;2023-02-28T03:33:46;26.80;;;24.92;;
2175;SDS011;1094;49.902;10.876;2023-02-28T03:36:19;28.67;;;26.67;;
2175;SDS011;1094;49.902;10.876;2023-02-28T03:38:49;26.80;;;25.13;;
2175;SDS011;1094;49.902;10.876;2023-02-28T03:41:22;28.20;;;26.08;;
2175;SDS011;1094;49.902;10.876;2023-02-28T03:43:50;27.23;;;25.42;;
2175;SDS011;1094;49.902;10.876;2023-02-28T03:46:17;26.65;;;24.73;;
2175;SDS011;1094;49.902;10.876;2023-02-28T03:48:48;27.42;;;25.38;;
2175;SDS011;1094;49.902;10.876;2023-02-28T03:51:17;27.90;;;25.90;;
2175;SDS011;1094;49.902;10.876;2023-02-28T03:53:49;27.00;;;25.23;;
2175;SDS011;1094;49.902;10.876;2023-02-28T03:56:17;28.75;;;26.85;;
2175;SDS011;1094;49.902;10.876;2023-02-28T03:58:47;27.23;;;25.35;;
2175;SDS011;1094;49.902;10.876;2023-02-28T04:01:15;25.73;;;24.00;;
2175;SDS011;1094;49.902;10.876;2023-02-28T04:03:43;29.30;;;27.23;;
2175;SDS011;1094;49.902;10.876;2023-02-28T04:06:13;27.10;;;25.20;;
2175;SDS011;1094;49.902;10.876;2023-02-28T04:08:40;26.95;;;25.15;;
2175;SDS011;1094;49.902;10.876;2023-02-28T04:13:51;26.98;;;25.20;;
2175;SDS011;1094;49.902;10.876;2023-02-28T04:16:17;28.40;;;26.30;;
2175;SDS011;1094;49.902;10.876;2023-02-28T04:18:43;28.95;;;26.77;;
2175;SDS011;1094;49.902;10.876;2023-02-28T04:21:09;28.15;;;26.35;;
2175;SDS011;1094;49.902;10.876;2023-02-28T04:23:35;28.15;;;26.25;;
2175;SDS011;1094;49.902;10.876;2023-02-28T04:26:01;29.23;;;27.23;;
2175;SDS011;1094;49.902;10.876;2023-02-28T04:28:27;29.70;;;27.58;;
2175;SDS011;1094;49.902;10.876;2023-02-28T04:30:57;28.40;;;26.37;;
2175;SDS011;1094;49.902;10.876;2023-02-28T04:33:23;29.65;;;27.50;;
2175;SDS011;1094;49.902;10.876;2023-02-28T04:35:57;28.97;;;26.90;;
2175;SDS011;1094;49.902;10.876;2023-02-28T04:38:23;29.58;;;27.42;;
2175;SDS011;1094;49.902;10.876;2023-02-28T04:40:49;28.73;;;26.63;;
2175;SDS011;1094;49.902;10.876;2023-02-28T04:43:15;30.17;;;28.00;;
2175;SDS011;1094;49.902;10.876;2023-02-28T04:45:41;28.63;;;26.67;;
2175;SDS011;1094;49.902;10.876;2023-02-28T04:48:07;29.33;;;27.43;;
2175;SDS011;1094;49.902;10.876;2023-02-28T04:50:33;27.90;;;25.80;;
2175;SDS011;1094;49.902;10.876;2023-02-28T04:52:59;29.40;;;27.00;;
2175;SDS011;1094;49.902;10.876;2023-02-28T04:55:25;29.40;;;26.90;;
2175;SDS011;1094;49.902;10.876;2023-02-28T04:57:50;28.60;;;26.70;;
2175;SDS011;1094;49.902;10.876;2023-02-28T05:00:17;28.83;;;26.55;;
2175;SDS011;1094;49.902;10.876;2023-02-28T05:02:43;30.48;;;28.20;;
2175;SDS011;1094;49.902;10.876;2023-02-28T05:05:09;28.15;;;26.02;;
2175;SDS011;1094;49.902;10.876;2023-02-28T05:07:35;29.17;;;26.85;;
2175;SDS011;1094;49.902;10.876;2023-02-28T05:10:01;30.03;;;28.00;;
2175;SDS011;1094;49.902;10.876;2023-02-28T05:12:27;29.90;;;27.30;;
2175;SDS011;1094;49.902;10.876;2023-02-28T05:14:53;28.48;;;26.42;;
2175;SDS011;1094;49.902;10.876;2023-02-28T05:17:19;30.30;;;28.30;;
2175;SDS011;1094;49.902;10.876;2023-02-28T05:19:45;30.60;;;28.07;;
2175;SDS011;1094;49.902;10.876;2023-02-28T05:22:12;31.50;;;29.10;;
2175;SDS011;1094;49.902;10.876;2023-02-28T05:24:40;30.25;;;27.95;;
2175;SDS011;1094;49.902;10.876;2023-02-28T05:27:07;28.23;;;26.15;;
2175;SDS011;1094;49.902;10.876;2023-02-28T05:29:33;30.30;;;28.10;;
2175;SDS011;1094;49.902;10.876;2023-02-28T05:32:06;29.58;;;27.33;;
2175;SDS011;1094;49.902;10.876;2023-02-28T05:34:32;28.60;;;26.20;;
2175;SDS011;1094;49.902;10.876;2023-02-28T05:36:58;29.73;;;27.33;;
2175;SDS011;1094;49.902;10.876;2023-02-28T05:39:24;29.00;;;26.90;;
2175;SDS011;1094;49.902;10.876;2023-02-28T05:41:50;28.10;;;26.30;;
2175;SDS011;1094;49.902;10.876;2023-02-28T05:44:16;29.23;;;27.07;;
2175;SDS011;1094;49.902;10.876;2023-02-28T05:46:41;29.03;;;26.67;;
2175;SDS011;1094;49.902;10.876;2023-02-28T05:49:07;29.27;;;26.87;;
2175;SDS011;1094;49.902;10.876;2023-02-28T05:51:33;29.87;;;27.77;;
2175;SDS011;1094;49.902;10.876;2023-02-28T05:54:01;28.38;;;26.55;;
2175;SDS011;1094;49.902;10.876;2023-02-28T05:56:27;29.13;;;27.02;;
2175;SDS011;1094;49.902;10.876;2023-02-28T05:58:53;28.90;;;26.67;;
2175;SDS011;1094;49.902;10.876;2023-02-28T06:01:21;28.60;;;26.70;;
2175;SDS011;1094;49.902;10.876;2023-02-28T06:03:47;31.55;;;28.85;;
2175;SDS011;1094;49.902;10.876;2023-02-28T06:06:13;29.60;;;27.50;;
2175;SDS011;1094;49.902;10.876;2023-02-28T06:08:39;29.63;;;27.30;;
2175;SDS011;1094;49.902;10.876;2023-02-28T06:11:05;30.67;;;28.30;;
2175;SDS011;1094;49.902;10.876;2023-02-28T06:13:31;30.98;;;28.60;;
2175;SDS011;1094;49.902;10.876;2023-02-28T06:16:00;30.00;;;27.73;;
2175;SDS011;1094;49.902;10.876;2023-02-28T06:18:26;30.17;;;27.92;;
2175;SDS011;1094;49.902;10.876;2023-02-28T06:20:55;30.43;;;28.23;;
2175;SDS011;1094;49.902;10.876;2023-02-28T06:23:21;30.00;;;28.00;;
2175;SDS011;1094;49.902;10.876;2023-02-28T06:25:47;29.95;;;27.65;;
2175;SDS011;1094;49.902;10.876;2023-02-28T06:28:14;30.40;;;28.00;;
2175;SDS011;1094;49.902;10.876;2023-02-28T06:33:16;30.25;;;28.02;;
2175;SDS011;1094;49.902;10.876;2023-02-28T06:35:46;29.48;;;27.20;;
2175;SDS011;1094;49.902;10.876;2023-02-28T06:38:12;29.02;;;26.90;;
2175;SDS011;1094;49.902;10.876;2023-02-28T06:40:38;28.25;;;26.25;;
2175;SDS011;1094;49.902;10.876;2023-02-28T06:43:04;26.90;;;25.00;;
2175;SDS011;1094;49.902;10.876;2023-02-28T06:45:30;28.25;;;26.00;;
2175;SDS011;1094;49.902;10.876;2023-02-28T06:47:56;30.00;;;27.17;;
2175;SDS011;1094;49.902;10.876;2023-02-28T06:50:23;28.85;;;26.52;;
2175;SDS011;1094;49.902;10.876;2023-02-28T06:52:48;29.83;;;27.50;;
2175;SDS011;1094;49.902;10.876;2023-02-28T06:55:18;30.27;;;27.75;;
2175;SDS011;1094;49.902;10.876;2023-02-28T06:57:44;28.30;;;26.00;;
2175;SDS011;1094;49.902;10.876;2023-02-28T07:00:10;29.77;;;27.38;;
2175;SDS011;1094;49.902;10.876;2023-02-28T07:02:37;31.08;;;28.60;;
2175;SDS011;1094;49.902;10.876;2023-02-28T07:05:04;27.85;;;25.55;;
2175;SDS011;1094;49.902;10.876;2023-02-28T07:07:30;29.30;;;26.95;;
2175;SDS011;1094;49.902;10.876;2023-02-28T07:09:57;28.40;;;26.35;;
2175;SDS011;1094;49.902;10.876;2023-02-28T07:12:23;28.70;;;26.40;;
2175;SDS011;1094;49.902;10.876;2023-02-28T07:14:49;28.23;;;25.98;;
2175;SDS011;1094;49.902;10.876;2023-02-28T07:17:15;29.23;;;27.20;;
2175;SDS011;1094;49.902;10.876;2023-02-28T07:19:41;28.93;;;26.63;;
2175;SDS011;1094;49.902;10.876;2023-02-28T07:22:07;28.90;;;26.60;;
2175;SDS011;1094;49.902;10.876;2023-02-28T07:24:32;27.80;;;25.97;;
2175;SDS011;1094;49.902;10.876;2023-02-28T07:26:58;27.80;;;25.70;;
2175;SDS011;1094;49.902;10.876;2023-02-28T07:29:25;28.95;;;26.85;;
2175;SDS011;1094;49.902;10.876;2023-02-28T07:31:51;28.57;;;26.47;;
2175;SDS011;1094;49.902;10.876;2023-02-28T07:34:18;28.17;;;25.95;;
2175;SDS011;1094;49.902;10.876;2023-02-28T07:36:44;28.33;;;26.38;;
2175;SDS011;1094;49.902;10.876;2023-02-28T07:39:10;27.23;;;25.23;;
2175;SDS011;1094;49.902;10.876;2023-02-28T07:41:36;26.93;;;24.90;;
2175;SDS011;1094;49.902;10.876;2023-02-28T07:44:08;26.57;;;24.50;;
2175;SDS011;1094;49.902;10.876;2023-02-28T07:46:33;28.33;;;25.80;;
2175;SDS011;1094;49.902;10.876;2023-02-28T07:49:01;28.77;;;26.47;;
2175;SDS011;1094;49.902;10.876;2023-02-28T07:51:28;26.10;;;24.07;;
2175;SDS011;1094;49.902;10.876;2023-02-28T07:53:54;27.00;;;25.20;;
2175;SDS011;1094;49.902;10.876;2023-02-28T07:56:20;26.77;;;24.70;;
2175;SDS011;1094;49.902;10.876;2023-02-28T07:58:46;26.10;;;24.10;;
2175;SDS011;1094;49.902;10.876;2023-02-28T08:01:12;26.27;;;24.27;;
2175;SDS011;1094;49.902;10.876;2023-02-28T08:03:38;25.90;;;23.97;;
2175;SDS011;1094;49.902;10.876;2023-02-28T08:06:05;25.37;;;23.53;;
2175;SDS011;1094;49.902;10.876;2023-02-28T08:08:31;27.17;;;25.27;;
2175;SDS011;1094;49.902;10.876;2023-02-28T08:11:01;26.00;;;24.10;;
2175;SDS011;1094;49.902;10.876;2023-02-28T08:13:28;27.13;;;25.10;;
2175;SDS011;1094;49.902;10.876;2023-02-28T08:15:54;25.40;;;23.70;;
2175;SDS011;1094;49.902;10.876;2023-02-28T08:18:20;26.47;;;24.27;;
2175;SDS011;1094;49.902;10.876;2023-02-28T08:20:46;25.77;;;23.97;;
2175;SDS011;1094;49.902;10.876;2023-02-28T08:23:12;26.07;;;24.20;;
2175;SDS011;1094;49.902;10.876;2023-02-28T08:25:39;25.27;;;23.47;;
2175;SDS011;1094;49.902;10.876;2023-02-28T08:28:04;26.00;;;24.30;;
2175;SDS011;1094;49.902;10.876;2023-02-28T08:30:30;26.10;;;24.13;;
2175;SDS011;1094;49.902;10.876;2023-02-28T08:32:56;25.80;;;24.03;;
2175;SDS011;1094;49.902;10.876;2023-02-28T08:35:22;26.20;;;24.20;;
2175;SDS011;1094;49.902;10.876;2023-02-28T08:37:48;25.90;;;24.10;;
2175;SDS011;1094;49.902;10.876;2023-02-28T08:40:15;25.43;;;23.63;;
2175;SDS011;1094;49.902;10.876;2023-02-28T08:42:46;25.80;;;24.00;;
2175;SDS011;1094;49.902;10.876;2023-02-28T08:45:13;27.00;;;25.00;;
2175;SDS011;1094;49.902;10.876;2023-02-28T08:47:39;28.40;;;26.10;;
2175;SDS011;1094;49.902;10.876;2023-02-28T08:50:05;26.30;;;24.30;;
2175;SDS011;1094;49.902;10.876;2023-02-28T08:52:31;27.30;;;25.30;;
2175;SDS011;1094;49.902;10.876;2023-02-28T08:54:57;27.03;;;25.17;;
2175;SDS011;1094;49.902;10.876;2023-02-28T08:57:23;25.97;;;24.20;;
2175;SDS011;1094;49.902;10.876;2023-02-28T08:59:51;26.60;;;24.70;;
2175;SDS011;1094;49.902;10.876;2023-02-28T09:02:17;26.63;;;24.70;;
2175;SDS011;1094;49.902;10.876;2023-02-28T09:04:43;26.83;;;24.73;;
2175;SDS011;1094;49.902;10.876;2023-02-28T09:07:10;28.00;;;25.87;;
2175;SDS011;1094;49.902;10.876;2023-02-28T09:09:36;26.33;;;24.00;;
2175;SDS011;1094;49.902;10.876;2023-02-28T09:12:02;27.47;;;25.50;;
2175;SDS011;1094;49.902;10.876;2023-02-28T09:14:28;28.67;;;26.77;;
2175;SDS011;1094;49.902;10.876;2023-02-28T09:16:54;26.37;;;24.33;;
2175;SDS011;1094;49.902;10.876;2023-02-28T09:19:20;27.90;;;25.60;;
2175;SDS011;1094;49.902;10.876;2023-02-28T09:21:47;26.40;;;24.30;;
2175;SDS011;1094;49.902;10.876;2023-02-28T09:24:13;25.23;;;23.53;;
2175;SDS011;1094;49.902;10.876;2023-02-28T09:26:40;26.63;;;24.63;;
2175;SDS011;1094;49.902;10.876;2023-02-28T09:29:06;27.10;;;25.03;;
2175;SDS011;1094;49.902;10.876;2023-02-28T09:31:32;28.23;;;25.93;;
2175;SDS011;1094;49.902;10.876;2023-02-28T09:33:58;28.10;;;25.87;;
2175;SDS011;1094;49.902;10.876;2023-02-28T09:36:25;26.70;;;24.80;;
2175;SDS011;1094;49.902;10.876;2023-02-28T09:38:51;25.77;;;23.87;;
2175;SDS011;1094;49.902;10.876;2023-02-28T09:41:21;27.47;;;25.57;;
2175;SDS011;1094;49.902;10.876;2023-02-28T09:43:57;25.30;;;23.67;;
2175;SDS011;1094;49.902;10.876;2023-02-28T09:46:35;25.20;;;23.47;;
2175;SDS011;1094;49.902;10.876;2023-02-28T09:49:06;27.03;;;24.93;;
2175;SDS011;1094;49.902;10.876;2023-02-28T09:51:36;25.87;;;23.90;;
2175;SDS011;1094;49.902;10.876;2023-02-28T09:54:03;26.97;;;25.10;;
2175;SDS011;1094;49.902;10.876;2023-02-28T09:56:37;28.13;;;25.63;;
2175;SDS011;1094;49.902;10.876;2023-02-28T10:02:13;24.20;;;22.63;;
2175;SDS011;1094;49.902;10.876;2023-02-28T10:04:51;25.10;;;23.50;;
2175;SDS011;1094;49.902;10.876;2023-02-28T10:08:09;26.90;;;25.00;;
2175;SDS011;1094;49.902;10.876;2023-02-28T10:10:26;26.57;;;24.60;;
2175;SDS011;1094;49.902;10.876;2023-02-28T10:12:53;27.30;;;25.40;;
2175;SDS011;1094;49.902;10.876;2023-02-28T10:15:21;26.73;;;24.90;;
2175;SDS011;1094;49.902;10.876;2023-02-28T10:17:48;27.20;;;25.40;;
2175;SDS011;1094;49.902;10.876;2023-02-28T10:20:19;26.43;;;24.60;;
2175;SDS011;1094;49.902;10.876;2023-02-28T10:22:52;26.20;;;24.40;;
2175;SDS011;1094;49.902;10.876;2023-02-28T10:25:20;25.77;;;23.97;;
2175;SDS011;1094;49.902;10.876;2023-02-28T10:27:47;27.53;;;25.50;;
2175;SDS011;1094;49.902;10.876;2023-02-28T10:30:13;26.93;;;24.83;;
2175;SDS011;1094;49.902;10.876;2023-02-28T10:32:39;27.73;;;25.80;;
2175;SDS011;1094;49.902;10.876;2023-02-28T10:37:38;27.63;;;25.43;;
2175;SDS011;1094;49.902;10.876;2023-02-28T10:40:05;26.53;;;24.63;;
2175;SDS011;1094;49.902;10.876;2023-02-28T10:42:32;27.33;;;25.03;;
2175;SDS011;1094;49.902;10.876;2023-02-28T10:47:30;26.97;;;25.17;;
2175;SDS011;1094;49.902;10.876;2023-02-28T10:49:58;28.13;;;25.90;;
2175;SDS011;1094;49.902;10.876;2023-02-28T10:52:37;26.90;;;24.90;;
2175;SDS011;1094;49.902;10.876;2023-02-28T10:55:21;27.33;;;25.23;;
2175;SDS011;1094;49.902;10.876;2023-02-28T10:57:48;27.87;;;25.57;;
2175;SDS011;1094;49.902;10.876;2023-02-28T11:00:19;26.60;;;24.90;;
2175;SDS011;1094;49.902;10.876;2023-02-28T11:02:46;24.13;;;22.60;;
2175;SDS011;1094;49.902;10.876;2023-02-28T11:05:25;26.77;;;25.00;;
2175;SDS011;1094;49.902;10.876;2023-02-28T11:07:55;26.73;;;24.97;;
2175;SDS011;1094;49.902;10.876;2023-02-28T11:10:24;25.97;;;24.20;;
2175;SDS011;1094;49.902;10.876;2023-02-28T11:12:54;25.53;;;23.93;;
2175;SDS011;1094;49.902;10.876;2023-02-28T11:17:59;25.73;;;23.73;;
2175;SDS011;1094;49.902;10.876;2023-02-28T11:20:26;25.30;;;23.60;;
2175;SDS011;1094;49.902;10.876;2023-02-28T11:22:53;25.70;;;24.00;;
2175;SDS011;1094;49.902;10.876;2023-02-28T11:25:25;26.73;;;24.90;;
2175;SDS011;1094;49.902;10.876;2023-02-28T11:27:53;26.43;;;24.00;;
2175;SDS011;1094;49.902;10.876;2023-02-28T11:30:27;26.77;;;24.87;;
2175;SDS011;1094;49.902;10.876;2023-02-28T11:32:53;25.20;;;23.60;;
2175;SDS011;1094;49.902;10.876;2023-02-28T11:37:54;26.60;;;24.60;;
2175;SDS011;1094;49.902;10.876;2023-02-28T11:40:27;26.83;;;24.87;;
2175;SDS011;1094;49.902;10.876;2023-02-28T11:45:36;26.17;;;24.47;;
2175;SDS011;1094;49.902;10.876;2023-02-28T11:48:12;25.40;;;23.70;;
2175;SDS011;1094;49.902;10.876;2023-02-28T11:50:50;25.80;;;24.00;;
2175;SDS011;1094;49.902;10.876;2023-02-28T11:53:40;26.23;;;24.43;;
2175;SDS011;1094;49.902;10.876;2023-02-28T11:56:15;26.23;;;24.43;;
2175;SDS011;1094;49.902;10.876;2023-02-28T11:58:46;26.30;;;24.60;;
2175;SDS011;1094;49.902;10.876;2023-02-28T12:04:48;24.57;;;22.97;;
2175;SDS011;1094;49.902;10.876;2023-02-28T12:06:53;26.80;;;24.70;;
2175;SDS011;1094;49.902;10.876;2023-02-28T12:09:31;26.00;;;24.00;;
2175;SDS011;1094;49.902;10.876;2023-02-28T12:28:01;27.70;;;25.30;;
2175;SDS011;1094;49.902;10.876;2023-02-28T12:30:28;27.50;;;25.50;;
2175;SDS011;1094;49.902;10.876;2023-02-28T12:32:56;26.53;;;24.73;;
2175;SDS011;1094;49.902;10.876;2023-02-28T12:36:07;26.20;;;24.30;;
2175;SDS011;1094;49.902;10.876;2023-02-28T12:38:22;26.40;;;24.60;;
2175;SDS011;1094;49.902;10.876;2023-02-28T12:40:54;26.07;;;24.27;;
2175;SDS011;1094;49.902;10.876;2023-02-28T12:43:22;25.90;;;24.03;;
2175;SDS011;1094;49.902;10.876;2023-02-28T12:45:52;26.00;;;23.93;;
2175;SDS011;1094;49.902;10.876;2023-02-28T12:48:39;25.03;;;23.40;;
2175;SDS011;1094;49.902;10.876;2023-02-28T12:51:05;26.00;;;24.30;;
2175;SDS011;1094;49.902;10.876;2023-02-28T12:58:51;26.43;;;24.70;;
2175;SDS011;1094;49.902;10.876;2023-02-28T13:09:32;27.10;;;25.20;;
2175;SDS011;1094;49.902;10.876;2023-02-28T13:11:58;26.20;;;24.40;;
2175;SDS011;1094;49.902;10.876;2023-02-28T13:14:28;26.70;;;24.90;;
2175;SDS011;1094;49.902;10.876;2023-02-28T13:16:59;25.33;;;23.53;;
2175;SDS011;1094;49.902;10.876;2023-02-28T13:19:28;27.23;;;25.20;;
2175;SDS011;1094;49.902;10.876;2023-02-28T13:21:55;26.37;;;24.47;;
2175;SDS011;1094;49.902;10.876;2023-02-28T13:24:55;26.23;;;24.37;;
2175;SDS011;1094;49.902;10.876;2023-02-28T13:29:40;27.23;;;25.23;;
2175;SDS011;1094;49.902;10.876;2023-02-28T13:37:30;27.30;;;25.20;;
2175;SDS011;1094;49.902;10.876;2023-02-28T13:42:36;26.30;;;24.50;;
2175;SDS011;1094;49.902;10.876;2023-02-28T13:47:29;28.37;;;26.27;;
2175;SDS011;1094;49.902;10.876;2023-02-28T13:53:07;27.03;;;25.13;;
2175;SDS011;1094;49.902;10.876;2023-02-28T13:55:46;28.27;;;26.23;;
2175;SDS011;1094;49.902;10.876;2023-02-28T13:58:31;28.67;;;26.60;;
2175;SDS011;1094;49.902;10.876;2023-02-28T14:06:22;27.13;;;25.13;;
2175;SDS011;1094;49.902;10.876;2023-02-28T14:08:54;28.90;;;26.90;;
2175;SDS011;1094;49.902;10.876;2023-02-28T14:11:54;27.83;;;25.87;;
2175;SDS011;1094;49.902;10.876;2023-02-28T14:16:57;26.60;;;24.80;;
2175;SDS011;1094;49.902;10.876;2023-02-28T14:19:27;26.77;;;24.97;;
2175;SDS011;1094;49.902;10.876;2023-02-28T14:35:02;28.47;;;26.37;;
2175;SDS011;1094;49.902;10.876;2023-02-28T14:37:37;26.10;;;24.43;;
2175;SDS011;1094;49.902;10.876;2023-02-28T14:40:04;28.50;;;26.40;;
2175;SDS011;1094;49.902;10.876;2023-02-28T14:42:32;27.70;;;25.50;;
2175;SDS011;1094;49.902;10.876;2023-02-28T14:44:58;27.27;;;25.27;;
2175;SDS011;1094;49.902;10.876;2023-02-28T14:47:31;28.40;;;26.30;;
2175;SDS011;1094;49.902;10.876;2023-02-28T14:49:58;28.10;;;25.90;;
2175;SDS011;1094;49.902;10.876;2023-02-28T14:52:26;27.00;;;25.07;;
2175;SDS011;1094;49.902;10.876;2023-02-28T14:54:54;26.67;;;24.83;;
2175;SDS011;1094;49.902;10.876;2023-02-28T14:57:25;27.50;;;25.47;;
2175;SDS011;1094;49.902;10.876;2023-02-28T14:59:59;27.97;;;25.77;;
2175;SDS011;1094;49.902;10.876;2023-02-28T15:02:25;28.23;;;26.00;;
2175;SDS011;1094;49.902;10.876;2023-02-28T15:04:58;28.90;;;26.80;;
2175;SDS011;1094;49.902;10.876;2023-02-28T15:07:25;26.97;;;25.07;;
2175;SDS011;1094;49.902;10.876;2023-02-28T15:10:11;28.20;;;25.83;;
2175;SDS011;1094;49.902;10.876;2023-02-28T15:12:39;28.40;;;26.00;;
2175;SDS011;1094;49.902;10.876;2023-02-28T15:15:13;27.07;;;25.27;;
2175;SDS011;1094;49.902;10.876;2023-02-28T15:17:44;27.30;;;25.37;;
2175;SDS011;1094;49.902;10.876;2023-02-28T15:20:11;27.80;;;25.80;;
2175;SDS011;1094;49.902;10.876;2023-02-28T15:22:38;28.93;;;26.20;;
2175;SDS011;1094;49.902;10.876;2023-02-28T15:25:04;26.13;;;24.33;;
2175;SDS011;1094;49.902;10.876;2023-02-28T15:27:33;27.13;;;25.30;;
2175;SDS011;1094;49.902;10.876;2023-02-28T15:30:00;28.30;;;26.30;;
2175;SDS011;1094;49.902;10.876;2023-02-28T15:32:31;26.87;;;25.03;;
2175;SDS011;1094;49.902;10.876;2023-02-28T15:34:57;27.40;;;25.30;;
2175;SDS011;1094;49.902;10.876;2023-02-28T15:39:53;26.20;;;24.50;;
2175;SDS011;1094;49.902;10.876;2023-02-28T15:42:21;28.03;;;25.47;;
2175;SDS011;1094;49.902;10.876;2023-02-28T15:44:47;27.63;;;25.33;;
2175;SDS011;1094;49.902;10.876;2023-02-28T15:47:21;28.33;;;25.67;;
2175;SDS011;1094;49.902;10.876;2023-02-28T15:49:49;25.30;;;23.70;;
2175;SDS011;1094;49.902;10.876;2023-02-28T15:52:16;26.23;;;24.40;;
2175;SDS011;1094;49.902;10.876;2023-02-28T15:54:44;25.93;;;24.23;;
2175;SDS011;1094;49.902;10.876;2023-02-28T15:57:13;26.43;;;24.63;;
2175;SDS011;1094;49.902;10.876;2023-02-28T15:59:42;28.53;;;26.27;;
2175;SDS011;1094;49.902;10.876;2023-02-28T16:02:15;26.70;;;24.77;;
2175;SDS011;1094;49.902;10.876;2023-02-28T16:07:27;26.37;;;24.37;;
2175;SDS011;1094;49.902;10.876;2023-02-28T16:09:53;26.93;;;24.93;;
2175;SDS011;1094;49.902;10.876;2023-02-28T16:12:20;27.20;;;25.20;;
2175;SDS011;1094;49.902;10.876;2023-02-28T16:14:47;27.33;;;25.53;;
2175;SDS011;1094;49.902;10.876;2023-02-28T16:17:19;27.47;;;25.40;;
2175;SDS011;1094;49.902;10.876;2023-02-28T16:19:46;26.63;;;24.63;;
2175;SDS011;1094;49.902;10.876;2023-02-28T16:22:12;26.50;;;24.70;;
2175;SDS011;1094;49.902;10.876;2023-02-28T16:24:38;26.80;;;24.70;;
2175;SDS011;1094;49.902;10.876;2023-02-28T16:27:05;26.83;;;25.03;;
2175;SDS011;1094;49.902;10.876;2023-02-28T16:29:32;26.90;;;25.10;;
2175;SDS011;1094;49.902;10.876;2023-02-28T16:31:59;26.67;;;25.00;;
2175;SDS011;1094;49.902;10.876;2023-02-28T16:34:26;27.40;;;25.37;;
2175;SDS011;1094;49.902;10.876;2023-02-28T16:36:52;27.50;;;25.60;;